sensor_id;sensor_type;location;lat;lon;timestamp;temperature;humidity
66928;DHT22;59882;45.624;11.698;2023-10-31T00:01:03;16.90;93.50
66928;DHT22;59882;45.624;11.698;2023-10-31T00:03:29;16.80;93.50
66928;DHT22;59882;45.624;11.698;2023-10-31T00:05:54;16.80;93.50
66928;DHT22;59882;45.624;11.698;2023-10-31T00:08:20;16.80;93.50
66928;DHT22;59882;45.624;11.698;2023-10-31T00:10:46;16.70;93.50
66928;DHT22;59882;45.624;11.698;2023-10-31T00:13:12;16.80;93.50
66928;DHT22;59882;45.624;11.698;2023-10-31T00:15:37;16.80;93.50
66928;DHT22;59882;45.624;11.698;2023-10-31T00:18:03;16.70;93.50
66928;DHT22;59882;45.624;11.698;2023-10-31T00:20:29;16.60;93.50
66928;DHT22;59882;45.624;11.698;2023-10-31T00:22:54;16.70;93.50
66928;DHT22;59882;45.624;11.698;2023-10-31T00:25:20;16.60;93.50
66928;DHT22;59882;45.624;11.698;2023-10-31T00:27:46;16.60;93.50
66928;DHT22;59882;45.624;11.698;2023-10-31T00:30:11;16.60;93.50
66928;DHT22;59882;45.624;11.698;2023-10-31T00:32:37;16.60;93.50
66928;DHT22;59882;45.624;11.698;2023-10-31T00:35:03;16.60;93.60
66928;DHT22;59882;45.624;11.698;2023-10-31T00:37:29;16.50;93.50
66928;DHT22;59882;45.624;11.698;2023-10-31T00:39:54;16.40;93.40
66928;DHT22;59882;45.624;11.698;2023-10-31T00:42:20;16.40;93.50
66928;DHT22;59882;45.624;11.698;2023-10-31T00:44:45;16.40;93.50
66928;DHT22;59882;45.624;11.698;2023-10-31T00:47:11;16.40;93.50
66928;DHT22;59882;45.624;11.698;2023-10-31T00:49:36;16.40;93.50
66928;DHT22;59882;45.624;11.698;2023-10-31T00:52:02;16.30;93.50
66928;DHT22;59882;45.624;11.698;2023-10-31T00:54:28;16.30;93.40
66928;DHT22;59882;45.624;11.698;2023-10-31T00:56:54;16.20;93.40
66928;DHT22;59882;45.624;11.698;2023-10-31T00:59:20;16.20;93.40
66928;DHT22;59882;45.624;11.698;2023-10-31T01:01:45;16.20;93.40
66928;DHT22;59882;45.624;11.698;2023-10-31T01:04:11;16.10;93.40
66928;DHT22;59882;45.624;11.698;2023-10-31T01:06:41;16.10;93.40
66928;DHT22;59882;45.624;11.698;2023-10-31T01:09:07;16.10;93.40
66928;DHT22;59882;45.624;11.698;2023-10-31T01:11:33;16.00;93.40
66928;DHT22;59882;45.624;11.698;2023-10-31T01:13:58;16.10;93.40
66928;DHT22;59882;45.624;11.698;2023-10-31T01:16:24;16.10;93.50
66928;DHT22;59882;45.624;11.698;2023-10-31T01:18:49;16.00;93.50
66928;DHT22;59882;45.624;11.698;2023-10-31T01:21:15;16.00;93.50
66928;DHT22;59882;45.624;11.698;2023-10-31T01:23:41;15.90;93.40
66928;DHT22;59882;45.624;11.698;2023-10-31T01:26:06;15.90;93.50
66928;DHT22;59882;45.624;11.698;2023-10-31T01:28:32;15.90;93.40
66928;DHT22;59882;45.624;11.698;2023-10-31T01:30:57;15.90;93.40
66928;DHT22;59882;45.624;11.698;2023-10-31T01:33:23;15.90;93.50
66928;DHT22;59882;45.624;11.698;2023-10-31T01:35:48;15.90;93.50
66928;DHT22;59882;45.624;11.698;2023-10-31T01:38:14;15.90;93.50
66928;DHT22;59882;45.624;11.698;2023-10-31T01:40:40;15.90;93.50
66928;DHT22;59882;45.624;11.698;2023-10-31T01:43:06;15.90;93.60
66928;DHT22;59882;45.624;11.698;2023-10-31T01:45:31;15.90;93.50
66928;DHT22;59882;45.624;11.698;2023-10-31T01:47:57;15.90;93.60
66928;DHT22;59882;45.624;11.698;2023-10-31T01:50:24;15.90;93.60
66928;DHT22;59882;45.624;11.698;2023-10-31T01:52:50;15.90;93.60
66928;DHT22;59882;45.624;11.698;2023-10-31T01:55:17;15.90;93.50
66928;DHT22;59882;45.624;11.698;2023-10-31T01:57:44;15.90;93.50
66928;DHT22;59882;45.624;11.698;2023-10-31T02:00:11;15.90;93.50
66928;DHT22;59882;45.624;11.698;2023-10-31T02:02:40;15.90;93.50
66928;DHT22;59882;45.624;11.698;2023-10-31T02:05:07;15.90;93.50
66928;DHT22;59882;45.624;11.698;2023-10-31T02:07:33;15.90;93.50
66928;DHT22;59882;45.624;11.698;2023-10-31T02:09:59;15.90;93.50
66928;DHT22;59882;45.624;11.698;2023-10-31T02:12:31;15.90;93.60
66928;DHT22;59882;45.624;11.698;2023-10-31T02:14:58;15.90;93.60
66928;DHT22;59882;45.624;11.698;2023-10-31T02:17:23;15.80;93.50
66928;DHT22;59882;45.624;11.698;2023-10-31T02:19:49;15.80;93.60
66928;DHT22;59882;45.624;11.698;2023-10-31T02:22:14;15.80;93.50
66928;DHT22;59882;45.624;11.698;2023-10-31T02:24:40;15.80;93.50
66928;DHT22;59882;45.624;11.698;2023-10-31T02:27:06;15.70;93.50
66928;DHT22;59882;45.624;11.698;2023-10-31T02:29:31;15.70;93.50
66928;DHT22;59882;45.624;11.698;2023-10-31T02:31:57;15.70;93.50
66928;DHT22;59882;45.624;11.698;2023-10-31T02:34:22;15.70;93.60
66928;DHT22;59882;45.624;11.698;2023-10-31T02:36:48;15.70;93.60
66928;DHT22;59882;45.624;11.698;2023-10-31T02:39:14;15.70;93.60
66928;DHT22;59882;45.624;11.698;2023-10-31T02:41:39;15.60;93.50
66928;DHT22;59882;45.624;11.698;2023-10-31T02:44:05;15.60;93.50
66928;DHT22;59882;45.624;11.698;2023-10-31T02:46:31;15.60;93.60
66928;DHT22;59882;45.624;11.698;2023-10-31T02:48:56;15.60;93.60
66928;DHT22;59882;45.624;11.698;2023-10-31T02:51:22;15.60;93.60
66928;DHT22;59882;45.624;11.698;2023-10-31T02:53:47;15.60;93.60
66928;DHT22;59882;45.624;11.698;2023-10-31T02:56:13;15.60;93.60
66928;DHT22;59882;45.624;11.698;2023-10-31T02:58:38;15.60;93.60
66928;DHT22;59882;45.624;11.698;2023-10-31T03:01:04;15.60;93.60
66928;DHT22;59882;45.624;11.698;2023-10-31T03:03:30;15.60;93.60
66928;DHT22;59882;45.624;11.698;2023-10-31T03:05:55;15.60;93.60
66928;DHT22;59882;45.624;11.698;2023-10-31T03:08:21;15.60;93.60
66928;DHT22;59882;45.624;11.698;2023-10-31T03:10:49;15.60;93.60
66928;DHT22;59882;45.624;11.698;2023-10-31T03:13:17;15.60;93.60
66928;DHT22;59882;45.624;11.698;2023-10-31T03:15:43;15.60;93.60
66928;DHT22;59882;45.624;11.698;2023-10-31T03:18:09;15.60;93.70
66928;DHT22;59882;45.624;11.698;2023-10-31T03:20:35;15.60;93.70
66928;DHT22;59882;45.624;11.698;2023-10-31T03:23:00;15.60;93.70
66928;DHT22;59882;45.624;11.698;2023-10-31T03:25:26;15.60;93.70
66928;DHT22;59882;45.624;11.698;2023-10-31T03:27:51;15.70;93.70
66928;DHT22;59882;45.624;11.698;2023-10-31T03:30:17;15.70;93.70
66928;DHT22;59882;45.624;11.698;2023-10-31T03:32:42;15.70;93.70
66928;DHT22;59882;45.624;11.698;2023-10-31T03:35:13;15.70;93.70
66928;DHT22;59882;45.624;11.698;2023-10-31T03:37:38;15.70;93.80
66928;DHT22;59882;45.624;11.698;2023-10-31T03:40:10;15.70;93.80
66928;DHT22;59882;45.624;11.698;2023-10-31T03:42:36;15.70;93.80
66928;DHT22;59882;45.624;11.698;2023-10-31T03:45:02;15.70;93.80
66928;DHT22;59882;45.624;11.698;2023-10-31T03:47:28;15.80;93.80
66928;DHT22;59882;45.624;11.698;2023-10-31T03:49:53;15.80;93.80
66928;DHT22;59882;45.624;11.698;2023-10-31T03:52:19;15.80;93.80
66928;DHT22;59882;45.624;11.698;2023-10-31T03:54:45;15.80;93.80
66928;DHT22;59882;45.624;11.698;2023-10-31T03:57:10;15.80;93.80
66928;DHT22;59882;45.624;11.698;2023-10-31T03:59:39;15.80;93.80
66928;DHT22;59882;45.624;11.698;2023-10-31T04:02:05;15.80;93.80
66928;DHT22;59882;45.624;11.698;2023-10-31T04:04:30;15.80;93.80
66928;DHT22;59882;45.624;11.698;2023-10-31T04:06:56;15.80;93.90
66928;DHT22;59882;45.624;11.698;2023-10-31T04:09:21;15.80;93.80
66928;DHT22;59882;45.624;11.698;2023-10-31T04:11:47;15.80;93.80
66928;DHT22;59882;45.624;11.698;2023-10-31T04:14:13;15.90;93.80
66928;DHT22;59882;45.624;11.698;2023-10-31T04:16:39;15.90;93.90
66928;DHT22;59882;45.624;11.698;2023-10-31T04:19:06;15.90;93.90
66928;DHT22;59882;45.624;11.698;2023-10-31T04:21:32;15.90;93.90
66928;DHT22;59882;45.624;11.698;2023-10-31T04:23:58;15.90;93.90
66928;DHT22;59882;45.624;11.698;2023-10-31T04:26:23;15.90;93.90
66928;DHT22;59882;45.624;11.698;2023-10-31T04:28:49;15.90;93.90
66928;DHT22;59882;45.624;11.698;2023-10-31T04:31:14;15.90;93.90
66928;DHT22;59882;45.624;11.698;2023-10-31T04:33:40;15.90;93.90
66928;DHT22;59882;45.624;11.698;2023-10-31T04:36:06;15.90;93.90
66928;DHT22;59882;45.624;11.698;2023-10-31T04:38:31;15.90;93.80
66928;DHT22;59882;45.624;11.698;2023-10-31T04:40:57;15.90;93.80
66928;DHT22;59882;45.624;11.698;2023-10-31T04:43:22;15.90;93.90
66928;DHT22;59882;45.624;11.698;2023-10-31T04:45:48;15.90;93.90
66928;DHT22;59882;45.624;11.698;2023-10-31T04:48:14;15.90;93.90
66928;DHT22;59882;45.624;11.698;2023-10-31T04:50:39;15.90;93.90
66928;DHT22;59882;45.624;11.698;2023-10-31T04:53:05;15.90;93.90
66928;DHT22;59882;45.624;11.698;2023-10-31T04:55:31;15.90;93.80
66928;DHT22;59882;45.624;11.698;2023-10-31T04:57:56;15.90;93.80
66928;DHT22;59882;45.624;11.698;2023-10-31T05:00:22;15.90;93.90
66928;DHT22;59882;45.624;11.698;2023-10-31T05:02:47;15.90;93.80
66928;DHT22;59882;45.624;11.698;2023-10-31T05:05:14;15.90;93.80
66928;DHT22;59882;45.624;11.698;2023-10-31T05:07:40;15.90;93.80
66928;DHT22;59882;45.624;11.698;2023-10-31T05:10:06;15.90;93.80
66928;DHT22;59882;45.624;11.698;2023-10-31T05:12:32;16.00;93.80
66928;DHT22;59882;45.624;11.698;2023-10-31T05:14:58;15.90;93.80
66928;DHT22;59882;45.624;11.698;2023-10-31T05:17:23;15.90;93.80
66928;DHT22;59882;45.624;11.698;2023-10-31T05:19:49;15.90;93.80
66928;DHT22;59882;45.624;11.698;2023-10-31T05:22:14;15.90;93.80
66928;DHT22;59882;45.624;11.698;2023-10-31T05:24:40;15.90;93.80
66928;DHT22;59882;45.624;11.698;2023-10-31T05:27:05;15.90;93.80
66928;DHT22;59882;45.624;11.698;2023-10-31T05:29:33;15.90;93.70
66928;DHT22;59882;45.624;11.698;2023-10-31T05:31:59;15.90;93.80
66928;DHT22;59882;45.624;11.698;2023-10-31T05:34:26;15.90;93.70
66928;DHT22;59882;45.624;11.698;2023-10-31T05:36:52;15.90;93.70
66928;DHT22;59882;45.624;11.698;2023-10-31T05:39:17;15.90;93.70
66928;DHT22;59882;45.624;11.698;2023-10-31T05:41:43;15.90;93.70
66928;DHT22;59882;45.624;11.698;2023-10-31T05:44:08;15.90;93.70
66928;DHT22;59882;45.624;11.698;2023-10-31T05:46:38;15.90;93.70
66928;DHT22;59882;45.624;11.698;2023-10-31T05:49:07;15.90;93.70
66928;DHT22;59882;45.624;11.698;2023-10-31T05:51:32;15.90;93.70
66928;DHT22;59882;45.624;11.698;2023-10-31T05:53:59;15.90;93.70
66928;DHT22;59882;45.624;11.698;2023-10-31T05:56:25;15.90;93.70
66928;DHT22;59882;45.624;11.698;2023-10-31T05:58:50;15.90;93.70
66928;DHT22;59882;45.624;11.698;2023-10-31T06:01:16;15.90;93.70
66928;DHT22;59882;45.624;11.698;2023-10-31T06:03:42;15.90;93.70
66928;DHT22;59882;45.624;11.698;2023-10-31T06:06:11;15.90;93.70
66928;DHT22;59882;45.624;11.698;2023-10-31T06:08:38;15.90;93.70
66928;DHT22;59882;45.624;11.698;2023-10-31T06:11:04;15.90;93.70
66928;DHT22;59882;45.624;11.698;2023-10-31T06:13:30;15.80;93.70
66928;DHT22;59882;45.624;11.698;2023-10-31T06:15:57;15.90;93.70
66928;DHT22;59882;45.624;11.698;2023-10-31T06:18:26;15.80;93.70
66928;DHT22;59882;45.624;11.698;2023-10-31T06:20:52;15.80;93.70
66928;DHT22;59882;45.624;11.698;2023-10-31T06:23:18;15.80;93.70
66928;DHT22;59882;45.624;11.698;2023-10-31T06:25:43;15.80;93.80
66928;DHT22;59882;45.624;11.698;2023-10-31T06:28:09;15.90;93.80
66928;DHT22;59882;45.624;11.698;2023-10-31T06:30:35;15.90;93.80
66928;DHT22;59882;45.624;11.698;2023-10-31T06:33:00;15.90;93.80
66928;DHT22;59882;45.624;11.698;2023-10-31T06:35:26;15.90;93.80
66928;DHT22;59882;45.624;11.698;2023-10-31T06:37:55;15.90;93.80
66928;DHT22;59882;45.624;11.698;2023-10-31T06:40:25;15.90;93.70
66928;DHT22;59882;45.624;11.698;2023-10-31T06:42:51;15.90;93.70
66928;DHT22;59882;45.624;11.698;2023-10-31T06:45:17;15.90;93.70
66928;DHT22;59882;45.624;11.698;2023-10-31T06:47:42;15.90;93.60
66928;DHT22;59882;45.624;11.698;2023-10-31T06:50:08;15.90;93.60
66928;DHT22;59882;45.624;11.698;2023-10-31T06:52:34;15.90;93.60
66928;DHT22;59882;45.624;11.698;2023-10-31T06:55:00;15.90;93.60
66928;DHT22;59882;45.624;11.698;2023-10-31T06:57:25;15.90;93.60
66928;DHT22;59882;45.624;11.698;2023-10-31T06:59:51;15.90;93.60
66928;DHT22;59882;45.624;11.698;2023-10-31T07:02:17;15.90;93.60
66928;DHT22;59882;45.624;11.698;2023-10-31T07:04:43;15.90;93.60
66928;DHT22;59882;45.624;11.698;2023-10-31T07:07:09;15.90;93.70
66928;DHT22;59882;45.624;11.698;2023-10-31T07:09:34;15.90;93.70
66928;DHT22;59882;45.624;11.698;2023-10-31T07:12:00;15.90;93.70
66928;DHT22;59882;45.624;11.698;2023-10-31T07:14:25;16.00;93.70
66928;DHT22;59882;45.624;11.698;2023-10-31T07:16:51;16.00;93.60
66928;DHT22;59882;45.624;11.698;2023-10-31T07:19:17;15.90;93.60
66928;DHT22;59882;45.624;11.698;2023-10-31T07:21:42;16.00;93.60
66928;DHT22;59882;45.624;11.698;2023-10-31T07:24:08;16.00;93.60
66928;DHT22;59882;45.624;11.698;2023-10-31T07:26:37;16.00;93.60
66928;DHT22;59882;45.624;11.698;2023-10-31T07:29:03;16.00;93.50
66928;DHT22;59882;45.624;11.698;2023-10-31T07:31:28;16.00;93.40
66928;DHT22;59882;45.624;11.698;2023-10-31T07:33:54;16.00;93.50
66928;DHT22;59882;45.624;11.698;2023-10-31T07:36:21;16.00;93.50
66928;DHT22;59882;45.624;11.698;2023-10-31T07:38:47;16.10;93.50
66928;DHT22;59882;45.624;11.698;2023-10-31T07:41:13;16.00;93.50
66928;DHT22;59882;45.624;11.698;2023-10-31T07:43:39;16.00;93.50
66928;DHT22;59882;45.624;11.698;2023-10-31T07:46:04;16.10;93.50
66928;DHT22;59882;45.624;11.698;2023-10-31T07:48:30;16.10;93.50
66928;DHT22;59882;45.624;11.698;2023-10-31T07:50:56;16.10;93.60
66928;DHT22;59882;45.624;11.698;2023-10-31T07:53:22;16.10;93.60
66928;DHT22;59882;45.624;11.698;2023-10-31T07:55:48;16.20;93.50
66928;DHT22;59882;45.624;11.698;2023-10-31T07:58:14;16.20;93.30
66928;DHT22;59882;45.624;11.698;2023-10-31T08:00:40;16.30;93.30
66928;DHT22;59882;45.624;11.698;2023-10-31T08:03:06;16.40;93.30
66928;DHT22;59882;45.624;11.698;2023-10-31T08:05:32;16.40;92.40
66928;DHT22;59882;45.624;11.698;2023-10-31T08:07:57;16.40;92.00
66928;DHT22;59882;45.624;11.698;2023-10-31T08:10:23;16.40;92.20
66928;DHT22;59882;45.624;11.698;2023-10-31T08:12:49;16.50;92.30
66928;DHT22;59882;45.624;11.698;2023-10-31T08:15:15;16.50;92.20
66928;DHT22;59882;45.624;11.698;2023-10-31T08:17:42;16.50;91.30
66928;DHT22;59882;45.624;11.698;2023-10-31T08:20:08;16.50;90.70
66928;DHT22;59882;45.624;11.698;2023-10-31T08:22:35;16.50;90.80
66928;DHT22;59882;45.624;11.698;2023-10-31T08:25:01;16.40;89.80
66928;DHT22;59882;45.624;11.698;2023-10-31T08:27:27;16.50;90.20
66928;DHT22;59882;45.624;11.698;2023-10-31T08:29:52;16.50;89.90
66928;DHT22;59882;45.624;11.698;2023-10-31T08:32:18;16.60;89.50
66928;DHT22;59882;45.624;11.698;2023-10-31T08:34:44;16.50;89.40
66928;DHT22;59882;45.624;11.698;2023-10-31T08:37:09;16.60;89.20
66928;DHT22;59882;45.624;11.698;2023-10-31T08:39:35;16.60;89.30
66928;DHT22;59882;45.624;11.698;2023-10-31T08:42:00;16.70;88.70
66928;DHT22;59882;45.624;11.698;2023-10-31T08:44:26;16.70;88.70
66928;DHT22;59882;45.624;11.698;2023-10-31T08:46:52;16.70;88.70
66928;DHT22;59882;45.624;11.698;2023-10-31T08:49:18;16.70;88.70
66928;DHT22;59882;45.624;11.698;2023-10-31T08:51:44;16.70;88.80
66928;DHT22;59882;45.624;11.698;2023-10-31T08:54:10;16.70;89.10
66928;DHT22;59882;45.624;11.698;2023-10-31T08:56:36;16.80;89.40
66928;DHT22;59882;45.624;11.698;2023-10-31T08:59:02;16.90;89.30
66928;DHT22;59882;45.624;11.698;2023-10-31T09:01:28;16.90;89.00
66928;DHT22;59882;45.624;11.698;2023-10-31T09:03:56;16.90;88.20
66928;DHT22;59882;45.624;11.698;2023-10-31T09:06:24;17.00;87.40
66928;DHT22;59882;45.624;11.698;2023-10-31T09:08:49;17.00;86.70
66928;DHT22;59882;45.624;11.698;2023-10-31T09:11:15;17.00;83.80
66928;DHT22;59882;45.624;11.698;2023-10-31T09:13:41;16.90;78.30
66928;DHT22;59882;45.624;11.698;2023-10-31T09:16:07;16.80;78.50
66928;DHT22;59882;45.624;11.698;2023-10-31T09:18:32;16.80;78.90
66928;DHT22;59882;45.624;11.698;2023-10-31T09:20:58;16.70;77.70
66928;DHT22;59882;45.624;11.698;2023-10-31T09:23:23;16.60;76.90
66928;DHT22;59882;45.624;11.698;2023-10-31T09:25:49;16.50;77.00
66928;DHT22;59882;45.624;11.698;2023-10-31T09:28:15;16.30;77.80
66928;DHT22;59882;45.624;11.698;2023-10-31T09:30:40;16.20;78.50
66928;DHT22;59882;45.624;11.698;2023-10-31T09:33:06;16.10;78.90
66928;DHT22;59882;45.624;11.698;2023-10-31T09:35:32;16.00;79.40
66928;DHT22;59882;45.624;11.698;2023-10-31T09:37:57;16.00;80.40
66928;DHT22;59882;45.624;11.698;2023-10-31T09:40:23;16.00;80.50
66928;DHT22;59882;45.624;11.698;2023-10-31T09:42:49;16.00;80.50
66928;DHT22;59882;45.624;11.698;2023-10-31T09:45:15;16.00;79.90
66928;DHT22;59882;45.624;11.698;2023-10-31T09:47:41;16.00;79.40
66928;DHT22;59882;45.624;11.698;2023-10-31T09:50:10;16.00;79.50
66928;DHT22;59882;45.624;11.698;2023-10-31T09:52:37;16.10;80.00
66928;DHT22;59882;45.624;11.698;2023-10-31T09:55:04;16.10;79.90
66928;DHT22;59882;45.624;11.698;2023-10-31T09:57:30;16.10;79.10
66928;DHT22;59882;45.624;11.698;2023-10-31T09:59:56;16.20;79.10
66928;DHT22;59882;45.624;11.698;2023-10-31T10:02:22;16.10;79.70
66928;DHT22;59882;45.624;11.698;2023-10-31T10:04:48;16.10;77.90
66928;DHT22;59882;45.624;11.698;2023-10-31T10:07:17;16.10;77.00
66928;DHT22;59882;45.624;11.698;2023-10-31T10:09:44;16.00;77.40
66928;DHT22;59882;45.624;11.698;2023-10-31T10:12:17;15.90;77.20
66928;DHT22;59882;45.624;11.698;2023-10-31T10:14:45;15.90;77.80
66928;DHT22;59882;45.624;11.698;2023-10-31T10:17:20;15.90;77.70
66928;DHT22;59882;45.624;11.698;2023-10-31T10:19:46;15.90;77.60
66928;DHT22;59882;45.624;11.698;2023-10-31T10:22:11;15.90;77.50
66928;DHT22;59882;45.624;11.698;2023-10-31T10:24:42;15.80;76.50
66928;DHT22;59882;45.624;11.698;2023-10-31T10:27:08;15.80;75.60
66928;DHT22;59882;45.624;11.698;2023-10-31T10:29:34;15.80;76.60
66928;DHT22;59882;45.624;11.698;2023-10-31T10:32:00;15.80;75.20
66928;DHT22;59882;45.624;11.698;2023-10-31T10:34:26;15.80;75.40
66928;DHT22;59882;45.624;11.698;2023-10-31T10:36:53;15.80;76.10
66928;DHT22;59882;45.624;11.698;2023-10-31T10:39:23;15.90;76.60
66928;DHT22;59882;45.624;11.698;2023-10-31T10:41:55;16.00;76.20
66928;DHT22;59882;45.624;11.698;2023-10-31T10:44:34;16.20;74.80
66928;DHT22;59882;45.624;11.698;2023-10-31T10:47:05;16.30;74.00
66928;DHT22;59882;45.624;11.698;2023-10-31T10:49:36;16.20;73.10
66928;DHT22;59882;45.624;11.698;2023-10-31T10:55:04;16.30;73.20
66928;DHT22;59882;45.624;11.698;2023-10-31T10:57:38;16.40;71.90
66928;DHT22;59882;45.624;11.698;2023-10-31T11:00:08;16.50;72.60
66928;DHT22;59882;45.624;11.698;2023-10-31T11:02:36;16.60;71.60
66928;DHT22;59882;45.624;11.698;2023-10-31T11:05:05;16.70;72.50
66928;DHT22;59882;45.624;11.698;2023-10-31T11:07:34;16.80;71.80
66928;DHT22;59882;45.624;11.698;2023-10-31T11:10:00;16.90;70.40
66928;DHT22;59882;45.624;11.698;2023-10-31T11:12:29;16.90;69.70
66928;DHT22;59882;45.624;11.698;2023-10-31T11:14:57;16.80;70.60
66928;DHT22;59882;45.624;11.698;2023-10-31T11:17:26;16.90;71.60
66928;DHT22;59882;45.624;11.698;2023-10-31T11:19:54;17.00;72.10
66928;DHT22;59882;45.624;11.698;2023-10-31T11:22:21;17.00;71.00
66928;DHT22;59882;45.624;11.698;2023-10-31T11:24:48;17.10;71.40
66928;DHT22;59882;45.624;11.698;2023-10-31T11:27:14;17.00;71.20
66928;DHT22;59882;45.624;11.698;2023-10-31T11:29:41;17.10;72.00
66928;DHT22;59882;45.624;11.698;2023-10-31T11:32:11;17.10;72.30
66928;DHT22;59882;45.624;11.698;2023-10-31T11:34:38;17.10;72.20
66928;DHT22;59882;45.624;11.698;2023-10-31T11:37:37;17.10;71.40
66928;DHT22;59882;45.624;11.698;2023-10-31T11:40:21;17.00;71.70
66928;DHT22;59882;45.624;11.698;2023-10-31T11:42:49;16.90;70.60
66928;DHT22;59882;45.624;11.698;2023-10-31T11:45:41;16.90;69.80
66928;DHT22;59882;45.624;11.698;2023-10-31T11:48:07;16.80;71.30
66928;DHT22;59882;45.624;11.698;2023-10-31T11:50:34;16.70;71.20
66928;DHT22;59882;45.624;11.698;2023-10-31T11:53:10;16.60;69.10
66928;DHT22;59882;45.624;11.698;2023-10-31T11:55:46;16.40;71.10
66928;DHT22;59882;45.624;11.698;2023-10-31T11:58:30;16.30;72.50
66928;DHT22;59882;45.624;11.698;2023-10-31T12:01:03;16.10;71.90
66928;DHT22;59882;45.624;11.698;2023-10-31T12:03:43;16.00;70.70
66928;DHT22;59882;45.624;11.698;2023-10-31T12:06:13;15.90;70.50
66928;DHT22;59882;45.624;11.698;2023-10-31T12:08:40;15.90;71.90
66928;DHT22;59882;45.624;11.698;2023-10-31T12:11:17;15.90;70.40
66928;DHT22;59882;45.624;11.698;2023-10-31T12:13:59;15.90;71.10
66928;DHT22;59882;45.624;11.698;2023-10-31T12:16:30;15.90;71.30
66928;DHT22;59882;45.624;11.698;2023-10-31T12:19:01;15.80;70.50
66928;DHT22;59882;45.624;11.698;2023-10-31T12:21:43;15.80;72.10
66928;DHT22;59882;45.624;11.698;2023-10-31T12:24:13;15.80;73.50
66928;DHT22;59882;45.624;11.698;2023-10-31T12:26:40;15.80;74.10
66928;DHT22;59882;45.624;11.698;2023-10-31T12:31:32;15.80;74.60
66928;DHT22;59882;45.624;11.698;2023-10-31T12:34:05;15.70;74.70
66928;DHT22;59882;45.624;11.698;2023-10-31T12:36:31;15.80;73.90
66928;DHT22;59882;45.624;11.698;2023-10-31T12:38:56;15.80;74.20
66928;DHT22;59882;45.624;11.698;2023-10-31T12:41:22;15.80;73.20
66928;DHT22;59882;45.624;11.698;2023-10-31T12:43:48;15.70;73.30
66928;DHT22;59882;45.624;11.698;2023-10-31T12:46:30;15.80;74.00
66928;DHT22;59882;45.624;11.698;2023-10-31T12:48:56;15.70;72.90
66928;DHT22;59882;45.624;11.698;2023-10-31T12:51:22;15.80;73.00
66928;DHT22;59882;45.624;11.698;2023-10-31T12:53:51;15.80;71.60
66928;DHT22;59882;45.624;11.698;2023-10-31T12:56:37;15.80;71.00
66928;DHT22;59882;45.624;11.698;2023-10-31T12:59:05;15.90;71.90
66928;DHT22;59882;45.624;11.698;2023-10-31T13:01:36;15.90;70.50
66928;DHT22;59882;45.624;11.698;2023-10-31T13:04:05;15.90;71.50
66928;DHT22;59882;45.624;11.698;2023-10-31T13:06:30;16.00;70.30
66928;DHT22;59882;45.624;11.698;2023-10-31T13:08:56;16.00;69.50
66928;DHT22;59882;45.624;11.698;2023-10-31T13:11:23;16.00;69.10
66928;DHT22;59882;45.624;11.698;2023-10-31T13:13:54;16.10;66.40
66928;DHT22;59882;45.624;11.698;2023-10-31T13:16:20;16.20;66.50
66928;DHT22;59882;45.624;11.698;2023-10-31T13:18:46;16.20;66.80
66928;DHT22;59882;45.624;11.698;2023-10-31T13:21:12;16.30;66.10
66928;DHT22;59882;45.624;11.698;2023-10-31T13:23:40;16.60;65.40
66928;DHT22;59882;45.624;11.698;2023-10-31T13:26:09;16.90;63.80
66928;DHT22;59882;45.624;11.698;2023-10-31T13:28:34;17.20;62.20
66928;DHT22;59882;45.624;11.698;2023-10-31T13:31:00;17.30;62.00
66928;DHT22;59882;45.624;11.698;2023-10-31T13:33:26;17.20;61.40
66928;DHT22;59882;45.624;11.698;2023-10-31T13:35:51;17.20;62.40
66928;DHT22;59882;45.624;11.698;2023-10-31T13:38:17;17.10;60.60
66928;DHT22;59882;45.624;11.698;2023-10-31T13:40:43;17.10;61.00
66928;DHT22;59882;45.624;11.698;2023-10-31T13:43:09;17.20;62.10
66928;DHT22;59882;45.624;11.698;2023-10-31T13:45:35;18.00;59.50
66928;DHT22;59882;45.624;11.698;2023-10-31T13:48:01;19.10;57.40
66928;DHT22;59882;45.624;11.698;2023-10-31T13:50:26;19.70;52.00
66928;DHT22;59882;45.624;11.698;2023-10-31T13:52:52;20.00;52.00
66928;DHT22;59882;45.624;11.698;2023-10-31T13:55:18;20.20;51.20
66928;DHT22;59882;45.624;11.698;2023-10-31T13:57:44;20.60;50.20
66928;DHT22;59882;45.624;11.698;2023-10-31T14:00:10;21.30;48.70
66928;DHT22;59882;45.624;11.698;2023-10-31T14:02:36;21.60;48.30
66928;DHT22;59882;45.624;11.698;2023-10-31T14:05:02;21.80;44.50
66928;DHT22;59882;45.624;11.698;2023-10-31T14:07:29;21.50;47.50
66928;DHT22;59882;45.624;11.698;2023-10-31T14:09:55;21.20;46.00
66928;DHT22;59882;45.624;11.698;2023-10-31T14:12:23;20.90;48.10
66928;DHT22;59882;45.624;11.698;2023-10-31T14:14:48;20.60;48.90
66928;DHT22;59882;45.624;11.698;2023-10-31T14:17:17;20.20;50.40
66928;DHT22;59882;45.624;11.698;2023-10-31T14:19:43;19.70;52.00
66928;DHT22;59882;45.624;11.698;2023-10-31T14:22:09;19.40;53.40
66928;DHT22;59882;45.624;11.698;2023-10-31T14:24:35;19.10;54.40
66928;DHT22;59882;45.624;11.698;2023-10-31T14:27:01;18.70;55.40
66928;DHT22;59882;45.624;11.698;2023-10-31T14:29:27;18.50;55.90
66928;DHT22;59882;45.624;11.698;2023-10-31T14:31:52;18.20;57.00
66928;DHT22;59882;45.624;11.698;2023-10-31T14:34:20;18.10;57.70
66928;DHT22;59882;45.624;11.698;2023-10-31T14:36:46;17.90;57.10
66928;DHT22;59882;45.624;11.698;2023-10-31T14:39:12;17.80;58.20
66928;DHT22;59882;45.624;11.698;2023-10-31T14:41:38;17.70;58.00
66928;DHT22;59882;45.624;11.698;2023-10-31T14:44:04;17.60;59.10
66928;DHT22;59882;45.624;11.698;2023-10-31T14:46:30;17.60;59.60
66928;DHT22;59882;45.624;11.698;2023-10-31T14:48:57;17.60;58.20
66928;DHT22;59882;45.624;11.698;2023-10-31T14:51:23;17.60;58.30
66928;DHT22;59882;45.624;11.698;2023-10-31T14:53:49;17.60;58.20
66928;DHT22;59882;45.624;11.698;2023-10-31T14:56:15;17.60;59.10
66928;DHT22;59882;45.624;11.698;2023-10-31T14:58:41;17.60;59.20
66928;DHT22;59882;45.624;11.698;2023-10-31T15:01:06;17.60;59.80
66928;DHT22;59882;45.624;11.698;2023-10-31T15:03:32;17.60;60.10
66928;DHT22;59882;45.624;11.698;2023-10-31T15:05:58;17.50;60.60
66928;DHT22;59882;45.624;11.698;2023-10-31T15:08:24;17.40;60.70
66928;DHT22;59882;45.624;11.698;2023-10-31T15:10:52;17.40;61.50
66928;DHT22;59882;45.624;11.698;2023-10-31T15:13:17;17.40;61.80
66928;DHT22;59882;45.624;11.698;2023-10-31T15:15:43;17.30;62.10
66928;DHT22;59882;45.624;11.698;2023-10-31T15:18:09;17.20;62.30